sensor_id;sensor_type;location;lat;lon;timestamp;temperature;humidity
2603;DHT22;1311;47.966;7.958;2024-03-29T00:01:06;6.90;1.00
2603;DHT22;1311;47.966;7.958;2024-03-29T00:03:32;7.00;99.90
2603;DHT22;1311;47.966;7.958;2024-03-29T00:05:58;7.00;1.00
2603;DHT22;1311;47.966;7.958;2024-03-29T00:08:23;6.90;1.00
2603;DHT22;1311;47.966;7.958;2024-03-29T00:10:49;6.80;99.90
2603;DHT22;1311;47.966;7.958;2024-03-29T00:13:15;7.00;99.90
2603;DHT22;1311;47.966;7.958;2024-03-29T00:15:41;7.10;44.10
2603;DHT22;1311;47.966;7.958;2024-03-29T00:18:08;7.30;1.00
2603;DHT22;1311;47.966;7.958;2024-03-29T00:20:34;7.20;1.00
2603;DHT22;1311;47.966;7.958;2024-03-29T00:23:00;7.30;1.00
2603;DHT22;1311;47.966;7.958;2024-03-29T00:25:25;7.30;99.90
2603;DHT22;1311;47.966;7.958;2024-03-29T00:27:51;7.30;99.90
2603;DHT22;1311;47.966;7.958;2024-03-29T00:30:17;7.40;99.90
2603;DHT22;1311;47.966;7.958;2024-03-29T00:32:43;7.60;99.90
2603;DHT22;1311;47.966;7.958;2024-03-29T00:35:10;7.50;99.90
2603;DHT22;1311;47.966;7.958;2024-03-29T00:37:36;7.50;99.90
2603;DHT22;1311;47.966;7.958;2024-03-29T00:40:02;7.40;97.70
2603;DHT22;1311;47.966;7.958;2024-03-29T00:42:28;7.50;70.40
2603;DHT22;1311;47.966;7.958;2024-03-29T00:44:54;7.60;24.80
2603;DHT22;1311;47.966;7.958;2024-03-29T00:47:19;7.50;1.00
2603;DHT22;1311;47.966;7.958;2024-03-29T00:49:45;7.50;1.00
2603;DHT22;1311;47.966;7.958;2024-03-29T00:52:12;7.50;1.00
2603;DHT22;1311;47.966;7.958;2024-03-29T00:54:38;7.70;1.00
2603;DHT22;1311;47.966;7.958;2024-03-29T00:57:04;7.70;1.00
2603;DHT22;1311;47.966;7.958;2024-03-29T00:59:30;7.60;1.00
2603;DHT22;1311;47.966;7.958;2024-03-29T01:01:56;7.60;1.00
2603;DHT22;1311;47.966;7.958;2024-03-29T01:04:22;7.60;1.00
2603;DHT22;1311;47.966;7.958;2024-03-29T01:06:47;7.70;1.00
2603;DHT22;1311;47.966;7.958;2024-03-29T01:09:15;7.60;1.00
2603;DHT22;1311;47.966;7.958;2024-03-29T01:11:40;7.60;1.00
2603;DHT22;1311;47.966;7.958;2024-03-29T01:14:07;7.60;1.00
2603;DHT22;1311;47.966;7.958;2024-03-29T01:16:33;7.50;1.00
2603;DHT22;1311;47.966;7.958;2024-03-29T01:18:59;7.40;1.00
2603;DHT22;1311;47.966;7.958;2024-03-29T01:21:26;7.30;1.00
2603;DHT22;1311;47.966;7.958;2024-03-29T01:23:52;7.40;1.00
2603;DHT22;1311;47.966;7.958;2024-03-29T01:26:19;7.40;1.00
2603;DHT22;1311;47.966;7.958;2024-03-29T01:28:45;7.40;1.00
2603;DHT22;1311;47.966;7.958;2024-03-29T01:31:11;7.40;1.00
2603;DHT22;1311;47.966;7.958;2024-03-29T01:33:37;7.50;1.00
2603;DHT22;1311;47.966;7.958;2024-03-29T01:36:03;7.60;1.00
2603;DHT22;1311;47.966;7.958;2024-03-29T01:38:29;7.70;1.00
2603;DHT22;1311;47.966;7.958;2024-03-29T01:40:55;7.70;1.00
2603;DHT22;1311;47.966;7.958;2024-03-29T01:43:23;7.70;1.00
2603;DHT22;1311;47.966;7.958;2024-03-29T01:45:52;7.70;1.00
2603;DHT22;1311;47.966;7.958;2024-03-29T01:48:20;7.60;1.00
2603;DHT22;1311;47.966;7.958;2024-03-29T01:50:48;7.50;1.00
2603;DHT22;1311;47.966;7.958;2024-03-29T01:53:16;7.40;1.00
2603;DHT22;1311;47.966;7.958;2024-03-29T01:55:44;7.10;1.00
2603;DHT22;1311;47.966;7.958;2024-03-29T01:58:11;7.00;12.80
2603;DHT22;1311;47.966;7.958;2024-03-29T02:00:48;6.90;73.50
2603;DHT22;1311;47.966;7.958;2024-03-29T02:03:16;7.00;51.80
2603;DHT22;1311;47.966;7.958;2024-03-29T02:05:43;6.90;99.90
2603;DHT22;1311;47.966;7.958;2024-03-29T02:08:10;6.90;99.90
2603;DHT22;1311;47.966;7.958;2024-03-29T02:10:37;6.90;99.90
2603;DHT22;1311;47.966;7.958;2024-03-29T02:13:04;6.90;99.90
2603;DHT22;1311;47.966;7.958;2024-03-29T02:15:32;7.00;99.90
2603;DHT22;1311;47.966;7.958;2024-03-29T02:18:00;7.00;99.90
2603;DHT22;1311;47.966;7.958;2024-03-29T02:20:27;7.00;99.90
2603;DHT22;1311;47.966;7.958;2024-03-29T02:22:57;7.00;99.90
2603;DHT22;1311;47.966;7.958;2024-03-29T02:25:26;7.10;99.90
2603;DHT22;1311;47.966;7.958;2024-03-29T02:27:53;7.20;99.90
2603;DHT22;1311;47.966;7.958;2024-03-29T02:30:20;7.40;99.90
2603;DHT22;1311;47.966;7.958;2024-03-29T02:32:47;7.50;96.40
2603;DHT22;1311;47.966;7.958;2024-03-29T02:35:14;7.60;34.30
2603;DHT22;1311;47.966;7.958;2024-03-29T02:37:40;7.60;37.90
2603;DHT22;1311;47.966;7.958;2024-03-29T02:40:08;7.70;47.30
2603;DHT22;1311;47.966;7.958;2024-03-29T02:42:36;7.80;1.00
2603;DHT22;1311;47.966;7.958;2024-03-29T02:45:04;7.90;1.00
2603;DHT22;1311;47.966;7.958;2024-03-29T02:47:30;8.30;1.00
2603;DHT22;1311;47.966;7.958;2024-03-29T02:49:57;8.50;1.00
2603;DHT22;1311;47.966;7.958;2024-03-29T02:52:23;8.50;1.00
2603;DHT22;1311;47.966;7.958;2024-03-29T02:54:50;8.80;99.90
2603;DHT22;1311;47.966;7.958;2024-03-29T02:57:16;9.00;99.90
2603;DHT22;1311;47.966;7.958;2024-03-29T02:59:44;9.00;99.90
2603;DHT22;1311;47.966;7.958;2024-03-29T03:02:09;9.20;99.90
2603;DHT22;1311;47.966;7.958;2024-03-29T03:04:36;9.20;99.90
2603;DHT22;1311;47.966;7.958;2024-03-29T03:07:02;9.20;99.90
2603;DHT22;1311;47.966;7.958;2024-03-29T03:09:42;9.20;99.90
2603;DHT22;1311;47.966;7.958;2024-03-29T03:12:29;9.20;99.90
2603;DHT22;1311;47.966;7.958;2024-03-29T03:14:57;9.30;99.90
2603;DHT22;1311;47.966;7.958;2024-03-29T03:17:24;9.40;99.90
2603;DHT22;1311;47.966;7.958;2024-03-29T03:19:51;9.50;99.90
2603;DHT22;1311;47.966;7.958;2024-03-29T03:22:17;9.50;94.20
2603;DHT22;1311;47.966;7.958;2024-03-29T03:24:44;9.50;87.50
2603;DHT22;1311;47.966;7.958;2024-03-29T03:27:10;9.50;59.10
2603;DHT22;1311;47.966;7.958;2024-03-29T03:29:37;9.60;25.10
2603;DHT22;1311;47.966;7.958;2024-03-29T03:32:05;9.60;15.90
2603;DHT22;1311;47.966;7.958;2024-03-29T03:34:32;9.60;5.50
2603;DHT22;1311;47.966;7.958;2024-03-29T03:36:58;9.70;1.00
2603;DHT22;1311;47.966;7.958;2024-03-29T03:39:25;9.70;1.00
2603;DHT22;1311;47.966;7.958;2024-03-29T03:41:51;9.80;1.00
2603;DHT22;1311;47.966;7.958;2024-03-29T03:44:18;9.70;1.00
2603;DHT22;1311;47.966;7.958;2024-03-29T03:46:43;9.80;1.00
2603;DHT22;1311;47.966;7.958;2024-03-29T03:49:11;9.90;1.00
2603;DHT22;1311;47.966;7.958;2024-03-29T03:51:37;9.90;1.00
2603;DHT22;1311;47.966;7.958;2024-03-29T03:54:04;9.90;1.00
2603;DHT22;1311;47.966;7.958;2024-03-29T03:56:30;10.00;1.00
2603;DHT22;1311;47.966;7.958;2024-03-29T03:58:57;10.00;1.00
2603;DHT22;1311;47.966;7.958;2024-03-29T04:01:23;10.10;1.00
2603;DHT22;1311;47.966;7.958;2024-03-29T04:03:50;10.10;1.00
2603;DHT22;1311;47.966;7.958;2024-03-29T04:06:17;10.10;1.00
2603;DHT22;1311;47.966;7.958;2024-03-29T04:08:44;10.10;1.00
2603;DHT22;1311;47.966;7.958;2024-03-29T04:11:10;10.10;1.00
2603;DHT22;1311;47.966;7.958;2024-03-29T04:13:37;10.10;1.00
2603;DHT22;1311;47.966;7.958;2024-03-29T04:16:05;10.10;1.00
2603;DHT22;1311;47.966;7.958;2024-03-29T04:18:32;10.20;1.00
2603;DHT22;1311;47.966;7.958;2024-03-29T04:20:58;10.30;1.00
2603;DHT22;1311;47.966;7.958;2024-03-29T04:23:26;10.40;1.00
2603;DHT22;1311;47.966;7.958;2024-03-29T04:25:52;10.40;1.00
2603;DHT22;1311;47.966;7.958;2024-03-29T04:28:19;10.40;1.00
2603;DHT22;1311;47.966;7.958;2024-03-29T04:30:51;10.30;1.00
2603;DHT22;1311;47.966;7.958;2024-03-29T04:33:17;10.30;1.00
2603;DHT22;1311;47.966;7.958;2024-03-29T04:35:53;10.20;1.00
2603;DHT22;1311;47.966;7.958;2024-03-29T04:38:20;10.20;1.00
2603;DHT22;1311;47.966;7.958;2024-03-29T04:40:49;10.20;1.00
2603;DHT22;1311;47.966;7.958;2024-03-29T04:43:15;10.30;1.00
2603;DHT22;1311;47.966;7.958;2024-03-29T04:45:43;10.30;1.00
2603;DHT22;1311;47.966;7.958;2024-03-29T04:48:10;10.30;1.00
2603;DHT22;1311;47.966;7.958;2024-03-29T04:50:37;10.40;1.00
2603;DHT22;1311;47.966;7.958;2024-03-29T04:53:04;10.40;1.00
2603;DHT22;1311;47.966;7.958;2024-03-29T04:55:31;10.40;1.00
2603;DHT22;1311;47.966;7.958;2024-03-29T04:57:59;10.40;1.00
2603;DHT22;1311;47.966;7.958;2024-03-29T05:00:26;10.30;1.00
2603;DHT22;1311;47.966;7.958;2024-03-29T05:02:53;10.20;1.00
2603;DHT22;1311;47.966;7.958;2024-03-29T05:05:19;10.30;1.00
2603;DHT22;1311;47.966;7.958;2024-03-29T05:07:46;10.30;1.00
2603;DHT22;1311;47.966;7.958;2024-03-29T05:10:13;10.40;1.00
2603;DHT22;1311;47.966;7.958;2024-03-29T05:12:41;10.40;1.00
2603;DHT22;1311;47.966;7.958;2024-03-29T05:15:09;10.50;1.00
2603;DHT22;1311;47.966;7.958;2024-03-29T05:17:37;10.40;1.00
2603;DHT22;1311;47.966;7.958;2024-03-29T05:20:04;10.40;1.00
2603;DHT22;1311;47.966;7.958;2024-03-29T05:22:31;10.40;1.00
2603;DHT22;1311;47.966;7.958;2024-03-29T05:24:58;10.40;1.00
2603;DHT22;1311;47.966;7.958;2024-03-29T05:27:24;10.50;1.00
2603;DHT22;1311;47.966;7.958;2024-03-29T05:29:51;10.50;1.00
2603;DHT22;1311;47.966;7.958;2024-03-29T05:32:18;10.50;1.00
2603;DHT22;1311;47.966;7.958;2024-03-29T05:34:45;10.70;1.00
2603;DHT22;1311;47.966;7.958;2024-03-29T05:37:12;10.70;1.00
2603;DHT22;1311;47.966;7.958;2024-03-29T05:39:41;10.90;42.70
2603;DHT22;1311;47.966;7.958;2024-03-29T05:42:07;11.00;87.80
2603;DHT22;1311;47.966;7.958;2024-03-29T05:44:35;11.10;99.90
2603;DHT22;1311;47.966;7.958;2024-03-29T05:47:02;11.10;99.90
2603;DHT22;1311;47.966;7.958;2024-03-29T05:49:31;11.20;99.90
2603;DHT22;1311;47.966;7.958;2024-03-29T05:51:58;11.40;99.90
2603;DHT22;1311;47.966;7.958;2024-03-29T05:54:25;11.40;99.90
2603;DHT22;1311;47.966;7.958;2024-03-29T05:56:51;11.30;99.90
2603;DHT22;1311;47.966;7.958;2024-03-29T05:59:18;11.30;99.90
2603;DHT22;1311;47.966;7.958;2024-03-29T06:01:45;11.30;1.00
2603;DHT22;1311;47.966;7.958;2024-03-29T06:04:12;11.30;1.00
2603;DHT22;1311;47.966;7.958;2024-03-29T06:06:43;11.40;1.00
2603;DHT22;1311;47.966;7.958;2024-03-29T06:09:10;11.30;1.00
2603;DHT22;1311;47.966;7.958;2024-03-29T06:11:38;11.20;1.00
2603;DHT22;1311;47.966;7.958;2024-03-29T06:14:04;11.10;1.00
2603;DHT22;1311;47.966;7.958;2024-03-29T06:16:49;11.00;51.10
2603;DHT22;1311;47.966;7.958;2024-03-29T06:19:33;11.00;91.70
2603;DHT22;1311;47.966;7.958;2024-03-29T06:22:01;10.90;99.90
2603;DHT22;1311;47.966;7.958;2024-03-29T06:24:28;10.90;99.90
2603;DHT22;1311;47.966;7.958;2024-03-29T06:26:56;10.90;99.90
2603;DHT22;1311;47.966;7.958;2024-03-29T06:29:23;10.90;99.90
2603;DHT22;1311;47.966;7.958;2024-03-29T06:31:50;10.90;99.90
2603;DHT22;1311;47.966;7.958;2024-03-29T06:34:16;11.00;99.90
2603;DHT22;1311;47.966;7.958;2024-03-29T06:36:43;11.20;99.90
2603;DHT22;1311;47.966;7.958;2024-03-29T06:39:11;11.20;1.00
2603;DHT22;1311;47.966;7.958;2024-03-29T06:41:38;11.20;1.00
2603;DHT22;1311;47.966;7.958;2024-03-29T06:44:04;11.20;49.30
2603;DHT22;1311;47.966;7.958;2024-03-29T06:46:32;11.30;99.90
2603;DHT22;1311;47.966;7.958;2024-03-29T06:48:59;11.30;1.00
2603;DHT22;1311;47.966;7.958;2024-03-29T06:51:26;11.30;99.90
2603;DHT22;1311;47.966;7.958;2024-03-29T06:53:53;11.40;99.90
2603;DHT22;1311;47.966;7.958;2024-03-29T06:56:21;11.50;99.90
2603;DHT22;1311;47.966;7.958;2024-03-29T06:58:48;11.60;99.90
2603;DHT22;1311;47.966;7.958;2024-03-29T07:01:14;11.70;1.00
2603;DHT22;1311;47.966;7.958;2024-03-29T07:03:41;11.70;1.00
2603;DHT22;1311;47.966;7.958;2024-03-29T07:06:08;11.60;1.00
2603;DHT22;1311;47.966;7.958;2024-03-29T07:08:35;11.50;1.00
2603;DHT22;1311;47.966;7.958;2024-03-29T07:11:02;11.50;1.00
2603;DHT22;1311;47.966;7.958;2024-03-29T07:13:30;11.50;1.00
2603;DHT22;1311;47.966;7.958;2024-03-29T07:15:57;11.50;99.90
2603;DHT22;1311;47.966;7.958;2024-03-29T07:18:24;11.50;99.90
2603;DHT22;1311;47.966;7.958;2024-03-29T07:20:51;11.50;99.90
2603;DHT22;1311;47.966;7.958;2024-03-29T07:23:18;11.50;1.00
2603;DHT22;1311;47.966;7.958;2024-03-29T07:25:56;11.50;1.00
2603;DHT22;1311;47.966;7.958;2024-03-29T07:28:23;11.60;1.00
2603;DHT22;1311;47.966;7.958;2024-03-29T07:30:51;11.60;1.00
2603;DHT22;1311;47.966;7.958;2024-03-29T07:33:18;11.60;1.00
2603;DHT22;1311;47.966;7.958;2024-03-29T07:35:46;11.60;99.90
2603;DHT22;1311;47.966;7.958;2024-03-29T07:38:14;11.70;99.90
2603;DHT22;1311;47.966;7.958;2024-03-29T07:40:42;11.70;99.90
2603;DHT22;1311;47.966;7.958;2024-03-29T07:43:09;11.70;99.90
2603;DHT22;1311;47.966;7.958;2024-03-29T07:45:39;11.70;15.70
2603;DHT22;1311;47.966;7.958;2024-03-29T07:48:09;11.70;1.00
2603;DHT22;1311;47.966;7.958;2024-03-29T07:50:36;11.90;1.00
2603;DHT22;1311;47.966;7.958;2024-03-29T07:53:03;11.90;1.00
2603;DHT22;1311;47.966;7.958;2024-03-29T07:55:30;11.90;99.90
2603;DHT22;1311;47.966;7.958;2024-03-29T07:57:57;12.10;99.90
2603;DHT22;1311;47.966;7.958;2024-03-29T08:00:25;12.10;1.00
2603;DHT22;1311;47.966;7.958;2024-03-29T08:02:52;12.30;15.00
2603;DHT22;1311;47.966;7.958;2024-03-29T08:05:20;12.40;99.90
2603;DHT22;1311;47.966;7.958;2024-03-29T08:07:47;12.50;99.90
2603;DHT22;1311;47.966;7.958;2024-03-29T08:10:14;12.60;99.90
2603;DHT22;1311;47.966;7.958;2024-03-29T08:12:41;12.80;99.90
2603;DHT22;1311;47.966;7.958;2024-03-29T08:15:08;12.80;1.00
2603;DHT22;1311;47.966;7.958;2024-03-29T08:17:34;12.80;1.00
2603;DHT22;1311;47.966;7.958;2024-03-29T08:20:01;12.60;1.00
2603;DHT22;1311;47.966;7.958;2024-03-29T08:22:30;12.40;39.90
2603;DHT22;1311;47.966;7.958;2024-03-29T08:24:58;12.10;90.80
2603;DHT22;1311;47.966;7.958;2024-03-29T08:27:26;11.90;90.50
2603;DHT22;1311;47.966;7.958;2024-03-29T08:29:53;11.90;91.50
2603;DHT22;1311;47.966;7.958;2024-03-29T08:32:20;12.00;93.70
2603;DHT22;1311;47.966;7.958;2024-03-29T08:34:47;12.00;91.00
2603;DHT22;1311;47.966;7.958;2024-03-29T08:37:14;12.10;85.70
2603;DHT22;1311;47.966;7.958;2024-03-29T08:39:42;12.00;96.00
2603;DHT22;1311;47.966;7.958;2024-03-29T08:42:09;12.10;99.90
2603;DHT22;1311;47.966;7.958;2024-03-29T08:44:37;12.30;99.90
2603;DHT22;1311;47.966;7.958;2024-03-29T08:47:05;12.60;99.90
2603;DHT22;1311;47.966;7.958;2024-03-29T08:49:31;12.70;99.90
2603;DHT22;1311;47.966;7.958;2024-03-29T08:51:58;12.90;99.90
2603;DHT22;1311;47.966;7.958;2024-03-29T08:54:30;13.20;99.90
2603;DHT22;1311;47.966;7.958;2024-03-29T08:56:58;13.50;99.90
2603;DHT22;1311;47.966;7.958;2024-03-29T08:59:27;13.60;99.90
2603;DHT22;1311;47.966;7.958;2024-03-29T09:01:54;13.40;99.90
2603;DHT22;1311;47.966;7.958;2024-03-29T09:04:21;13.40;96.20
2603;DHT22;1311;47.966;7.958;2024-03-29T09:06:49;13.60;89.40
2603;DHT22;1311;47.966;7.958;2024-03-29T09:09:16;13.70;70.00
2603;DHT22;1311;47.966;7.958;2024-03-29T09:11:43;13.90;45.80
2603;DHT22;1311;47.966;7.958;2024-03-29T09:14:11;14.00;3.00
2603;DHT22;1311;47.966;7.958;2024-03-29T09:16:38;14.10;1.00
2603;DHT22;1311;47.966;7.958;2024-03-29T09:19:05;14.10;1.00
2603;DHT22;1311;47.966;7.958;2024-03-29T09:21:32;14.10;1.00
2603;DHT22;1311;47.966;7.958;2024-03-29T09:23:59;14.10;99.90
2603;DHT22;1311;47.966;7.958;2024-03-29T09:26:26;14.10;99.90
2603;DHT22;1311;47.966;7.958;2024-03-29T09:28:53;14.10;1.00
2603;DHT22;1311;47.966;7.958;2024-03-29T09:31:21;14.30;1.00
2603;DHT22;1311;47.966;7.958;2024-03-29T09:33:47;14.50;1.00
2603;DHT22;1311;47.966;7.958;2024-03-29T09:36:20;14.80;1.00
2603;DHT22;1311;47.966;7.958;2024-03-29T09:38:48;15.00;99.90
2603;DHT22;1311;47.966;7.958;2024-03-29T09:41:16;15.30;1.00
2603;DHT22;1311;47.966;7.958;2024-03-29T09:43:44;15.50;1.00
2603;DHT22;1311;47.966;7.958;2024-03-29T09:46:12;15.60;99.90
2603;DHT22;1311;47.966;7.958;2024-03-29T09:48:41;15.90;1.00
2603;DHT22;1311;47.966;7.958;2024-03-29T09:51:09;16.00;1.00
2603;DHT22;1311;47.966;7.958;2024-03-29T09:56:07;15.60;1.00
2603;DHT22;1311;47.966;7.958;2024-03-29T09:58:35;15.40;99.90
2603;DHT22;1311;47.966;7.958;2024-03-29T10:01:04;15.50;99.90
2603;DHT22;1311;47.966;7.958;2024-03-29T10:03:32;15.50;1.00
2603;DHT22;1311;47.966;7.958;2024-03-29T10:06:05;15.60;1.00
2603;DHT22;1311;47.966;7.958;2024-03-29T10:08:44;15.90;99.90
2603;DHT22;1311;47.966;7.958;2024-03-29T10:14:44;16.10;99.90
2603;DHT22;1311;47.966;7.958;2024-03-29T10:17:15;16.20;40.80
2603;DHT22;1311;47.966;7.958;2024-03-29T10:19:43;16.20;1.00
2603;DHT22;1311;47.966;7.958;2024-03-29T10:22:42;16.60;1.00
2603;DHT22;1311;47.966;7.958;2024-03-29T10:25:10;16.60;1.00
2603;DHT22;1311;47.966;7.958;2024-03-29T10:27:37;16.90;1.00
2603;DHT22;1311;47.966;7.958;2024-03-29T10:30:04;17.10;1.00
2603;DHT22;1311;47.966;7.958;2024-03-29T10:32:31;17.10;99.90
2603;DHT22;1311;47.966;7.958;2024-03-29T10:34:58;17.40;99.90
2603;DHT22;1311;47.966;7.958;2024-03-29T10:37:28;17.50;99.90
2603;DHT22;1311;47.966;7.958;2024-03-29T10:40:00;17.60;99.90
2603;DHT22;1311;47.966;7.958;2024-03-29T10:42:31;17.80;99.90
2603;DHT22;1311;47.966;7.958;2024-03-29T10:44:59;17.90;99.90
2603;DHT22;1311;47.966;7.958;2024-03-29T10:47:28;18.20;99.90
2603;DHT22;1311;47.966;7.958;2024-03-29T10:50:14;18.10;99.90
2603;DHT22;1311;47.966;7.958;2024-03-29T10:52:43;18.00;77.20
2603;DHT22;1311;47.966;7.958;2024-03-29T10:55:12;18.00;70.60
2603;DHT22;1311;47.966;7.958;2024-03-29T10:57:41;18.00;90.20
2603;DHT22;1311;47.966;7.958;2024-03-29T11:00:11;18.10;91.10
2603;DHT22;1311;47.966;7.958;2024-03-29T11:02:48;18.20;26.00
2603;DHT22;1311;47.966;7.958;2024-03-29T11:05:16;18.00;14.40
2603;DHT22;1311;47.966;7.958;2024-03-29T11:07:44;18.20;9.70
2603;DHT22;1311;47.966;7.958;2024-03-29T11:10:15;18.10;1.00
2603;DHT22;1311;47.966;7.958;2024-03-29T11:12:51;18.10;1.00
2603;DHT22;1311;47.966;7.958;2024-03-29T11:15:28;18.00;1.00
2603;DHT22;1311;47.966;7.958;2024-03-29T11:17:55;17.90;11.80
2603;DHT22;1311;47.966;7.958;2024-03-29T11:20:24;17.70;15.80
2603;DHT22;1311;47.966;7.958;2024-03-29T11:23:02;18.00;37.60
2603;DHT22;1311;47.966;7.958;2024-03-29T11:25:43;18.10;51.10
2603;DHT22;1311;47.966;7.958;2024-03-29T11:28:12;18.10;28.80
2603;DHT22;1311;47.966;7.958;2024-03-29T11:30:41;18.30;27.70
2603;DHT22;1311;47.966;7.958;2024-03-29T11:35:50;18.60;6.20
2603;DHT22;1311;47.966;7.958;2024-03-29T11:38:19;18.30;1.00
2603;DHT22;1311;47.966;7.958;2024-03-29T11:40:55;18.10;18.00
2603;DHT22;1311;47.966;7.958;2024-03-29T11:43:26;18.40;31.00
2603;DHT22;1311;47.966;7.958;2024-03-29T11:45:55;18.00;43.30
2603;DHT22;1311;47.966;7.958;2024-03-29T11:48:26;18.20;60.20
2603;DHT22;1311;47.966;7.958;2024-03-29T11:50:53;18.40;70.50
2603;DHT22;1311;47.966;7.958;2024-03-29T11:53:21;18.80;76.20
2603;DHT22;1311;47.966;7.958;2024-03-29T11:55:47;19.30;68.60
2603;DHT22;1311;47.966;7.958;2024-03-29T11:58:20;19.70;46.40
2603;DHT22;1311;47.966;7.958;2024-03-29T12:00:47;19.90;11.00
2603;DHT22;1311;47.966;7.958;2024-03-29T12:03:14;19.60;1.00
2603;DHT22;1311;47.966;7.958;2024-03-29T12:05:41;19.50;1.00
2603;DHT22;1311;47.966;7.958;2024-03-29T12:08:09;19.50;1.00
2603;DHT22;1311;47.966;7.958;2024-03-29T12:10:36;19.30;5.70
2603;DHT22;1311;47.966;7.958;2024-03-29T12:13:02;19.10;1.00
2603;DHT22;1311;47.966;7.958;2024-03-29T12:15:31;19.00;1.00
2603;DHT22;1311;47.966;7.958;2024-03-29T12:17:59;18.90;1.00
2603;DHT22;1311;47.966;7.958;2024-03-29T12:20:29;18.80;2.90
2603;DHT22;1311;47.966;7.958;2024-03-29T12:22:56;18.80;11.50
2603;DHT22;1311;47.966;7.958;2024-03-29T12:25:25;18.70;16.20
2603;DHT22;1311;47.966;7.958;2024-03-29T12:27:52;18.70;31.40
2603;DHT22;1311;47.966;7.958;2024-03-29T12:30:20;18.80;25.90
2603;DHT22;1311;47.966;7.958;2024-03-29T12:32:48;18.70;17.80
2603;DHT22;1311;47.966;7.958;2024-03-29T12:35:16;19.50;2.70
2603;DHT22;1311;47.966;7.958;2024-03-29T12:37:48;18.80;1.00
2603;DHT22;1311;47.966;7.958;2024-03-29T12:40:16;18.80;16.60
2603;DHT22;1311;47.966;7.958;2024-03-29T12:42:47;18.80;26.40
2603;DHT22;1311;47.966;7.958;2024-03-29T12:45:14;18.60;33.50
2603;DHT22;1311;47.966;7.958;2024-03-29T12:47:40;18.80;57.50
2603;DHT22;1311;47.966;7.958;2024-03-29T12:50:11;18.70;67.20
2603;DHT22;1311;47.966;7.958;2024-03-29T12:52:40;18.50;44.60
2603;DHT22;1311;47.966;7.958;2024-03-29T12:55:07;18.60;87.40
2603;DHT22;1311;47.966;7.958;2024-03-29T12:57:35;18.70;92.30
2603;DHT22;1311;47.966;7.958;2024-03-29T13:00:03;18.70;98.40
2603;DHT22;1311;47.966;7.958;2024-03-29T13:02:34;18.80;99.90
2603;DHT22;1311;47.966;7.958;2024-03-29T13:05:01;18.60;99.90
2603;DHT22;1311;47.966;7.958;2024-03-29T13:07:29;18.90;99.90
2603;DHT22;1311;47.966;7.958;2024-03-29T13:09:56;18.90;99.90
2603;DHT22;1311;47.966;7.958;2024-03-29T13:12:25;18.90;99.90
2603;DHT22;1311;47.966;7.958;2024-03-29T13:14:52;18.90;99.90
2603;DHT22;1311;47.966;7.958;2024-03-29T13:17:19;19.00;99.90
2603;DHT22;1311;47.966;7.958;2024-03-29T13:19:45;19.10;99.90
2603;DHT22;1311;47.966;7.958;2024-03-29T13:22:12;19.00;99.90
2603;DHT22;1311;47.966;7.958;2024-03-29T13:24:40;18.70;99.90
2603;DHT22;1311;47.966;7.958;2024-03-29T13:27:07;18.80;99.90
2603;DHT22;1311;47.966;7.958;2024-03-29T13:29:34;18.90;99.90
2603;DHT22;1311;47.966;7.958;2024-03-29T13:32:01;18.80;99.90
2603;DHT22;1311;47.966;7.958;2024-03-29T13:34:27;18.70;99.90
2603;DHT22;1311;47.966;7.958;2024-03-29T13:36:54;18.90;99.90
2603;DHT22;1311;47.966;7.958;2024-03-29T13:39:21;18.80;99.90
2603;DHT22;1311;47.966;7.958;2024-03-29T13:41:50;18.80;99.90
2603;DHT22;1311;47.966;7.958;2024-03-29T13:44:18;18.80;99.90
2603;DHT22;1311;47.966;7.958;2024-03-29T13:46:49;19.10;99.90
2603;DHT22;1311;47.966;7.958;2024-03-29T13:49:17;19.20;99.90
2603;DHT22;1311;47.966;7.958;2024-03-29T13:51:46;19.20;99.90
2603;DHT22;1311;47.966;7.958;2024-03-29T13:54:13;19.30;99.90
2603;DHT22;1311;47.966;7.958;2024-03-29T13:56:39;19.50;99.90
2603;DHT22;1311;47.966;7.958;2024-03-29T13:59:09;19.40;99.90
2603;DHT22;1311;47.966;7.958;2024-03-29T14:01:36;19.50;99.90
2603;DHT22;1311;47.966;7.958;2024-03-29T14:04:03;19.50;99.90
2603;DHT22;1311;47.966;7.958;2024-03-29T14:06:29;19.60;99.90
2603;DHT22;1311;47.966;7.958;2024-03-29T14:08:56;19.60;99.90
2603;DHT22;1311;47.966;7.958;2024-03-29T14:11:23;19.60;99.90
2603;DHT22;1311;47.966;7.958;2024-03-29T14:13:50;19.40;99.90
2603;DHT22;1311;47.966;7.958;2024-03-29T14:16:22;19.30;99.90
2603;DHT22;1311;47.966;7.958;2024-03-29T14:18:49;19.40;99.90
2603;DHT22;1311;47.966;7.958;2024-03-29T14:21:16;19.60;99.90
2603;DHT22;1311;47.966;7.958;2024-03-29T14:23:43;19.70;99.90
2603;DHT22;1311;47.966;7.958;2024-03-29T14:26:09;19.70;99.90
2603;DHT22;1311;47.966;7.958;2024-03-29T14:28:36;19.70;99.90
2603;DHT22;1311;47.966;7.958;2024-03-29T14:31:03;19.70;99.90
2603;DHT22;1311;47.966;7.958;2024-03-29T14:33:31;19.90;99.90
2603;DHT22;1311;47.966;7.958;2024-03-29T14:35:59;20.10;99.90
2603;DHT22;1311;47.966;7.958;2024-03-29T14:38:25;20.20;99.90
2603;DHT22;1311;47.966;7.958;2024-03-29T14:40:52;20.30;99.90
2603;DHT22;1311;47.966;7.958;2024-03-29T14:43:19;20.20;93.70
2603;DHT22;1311;47.966;7.958;2024-03-29T14:45:48;20.20;93.50
2603;DHT22;1311;47.966;7.958;2024-03-29T14:48:15;20.10;83.90
2603;DHT22;1311;47.966;7.958;2024-03-29T14:50:45;19.80;97.30
2603;DHT22;1311;47.966;7.958;2024-03-29T14:53:11;19.90;99.90
2603;DHT22;1311;47.966;7.958;2024-03-29T14:55:38;20.00;99.90
2603;DHT22;1311;47.966;7.958;2024-03-29T14:58:06;20.00;80.00
2603;DHT22;1311;47.966;7.958;2024-03-29T15:00:33;19.90;88.70
2603;DHT22;1311;47.966;7.958;2024-03-29T15:02:59;20.00;75.30
2603;DHT22;1311;47.966;7.958;2024-03-29T15:05:26;19.80;55.10
2603;DHT22;1311;47.966;7.958;2024-03-29T15:07:54;19.70;53.00
2603;DHT22;1311;47.966;7.958;2024-03-29T15:10:22;19.60;69.60
2603;DHT22;1311;47.966;7.958;2024-03-29T15:12:49;19.50;89.60
2603;DHT22;1311;47.966;7.958;2024-03-29T15:15:16;19.40;94.20
2603;DHT22;1311;47.966;7.958;2024-03-29T15:17:43;19.50;99.90
2603;DHT22;1311;47.966;7.958;2024-03-29T15:20:11;19.60;99.90
2603;DHT22;1311;47.966;7.958;2024-03-29T15:22:41;19.50;99.90
2603;DHT22;1311;47.966;7.958;2024-03-29T15:25:11;19.50;99.90
2603;DHT22;1311;47.966;7.958;2024-03-29T15:27:37;19.50;99.90
2603;DHT22;1311;47.966;7.958;2024-03-29T15:30:22;19.50;99.90
2603;DHT22;1311;47.966;7.958;2024-03-29T15:32:48;19.40;99.90
2603;DHT22;1311;47.966;7.958;2024-03-29T15:35:15;19.40;99.90
2603;DHT22;1311;47.966;7.958;2024-03-29T15:37:42;19.20;99.90
2603;DHT22;1311;47.966;7.958;2024-03-29T15:40:11;19.20;99.90
2603;DHT22;1311;47.966;7.958;2024-03-29T15:42:37;19.00;99.90
2603;DHT22;1311;47.966;7.958;2024-03-29T15:45:07;19.00;99.90
2603;DHT22;1311;47.966;7.958;2024-03-29T15:47:34;18.90;99.90
2603;DHT22;1311;47.966;7.958;2024-03-29T15:50:01;18.70;99.90
2603;DHT22;1311;47.966;7.958;2024-03-29T15:52:28;18.60;99.90
2603;DHT22;1311;47.966;7.958;2024-03-29T15:54:55;18.50;99.90
2603;DHT22;1311;47.966;7.958;2024-03-29T15:57:23;18.40;99.90
2603;DHT22;1311;47.966;7.958;2024-03-29T15:59:50;18.40;99.90
2603;DHT22;1311;47.966;7.958;2024-03-29T16:02:17;18.20;99.90
2603;DHT22;1311;47.966;7.958;2024-03-29T16:04:44;18.20;99.90
2603;DHT22;1311;47.966;7.958;2024-03-29T16:07:11;18.00;99.90
2603;DHT22;1311;47.966;7.958;2024-03-29T16:09:37;18.00;99.90
2603;DHT22;1311;47.966;7.958;2024-03-29T16:12:05;17.80;99.90
2603;DHT22;1311;47.966;7.958;2024-03-29T16:14:33;17.80;99.90
2603;DHT22;1311;47.966;7.958;2024-03-29T16:17:00;17.60;99.90
2603;DHT22;1311;47.966;7.958;2024-03-29T16:19:27;17.60;99.90
2603;DHT22;1311;47.966;7.958;2024-03-29T16:21:53;17.50;99.90
2603;DHT22;1311;47.966;7.958;2024-03-29T16:24:19;17.40;99.90